createdAt,value
2023-05-14T00:00:21.922Z,67.01
2023-05-14T00:02:48.656Z,68.40
2023-05-14T00:05:15.423Z,71.06
2023-05-14T00:07:41.773Z,70.43
2023-05-14T00:10:08.516Z,71.01
2023-05-14T00:12:34.912Z,72.21
2023-05-14T00:15:01.496Z,72.37
2023-05-14T00:17:28.114Z,71.25
2023-05-14T00:19:54.504Z,71.11
2023-05-14T00:22:20.957Z,70.09
2023-05-14T00:24:47.313Z,69.68
2023-05-14T00:27:13.896Z,69.41
2023-05-14T00:29:40.319Z,69.34
2023-05-14T00:32:06.962Z,69.13
2023-05-14T00:34:33.284Z,68.92
2023-05-14T00:36:59.855Z,69.37
2023-05-14T00:39:26.187Z,68.72
2023-05-14T00:41:52.539Z,68.65
2023-05-14T00:44:18.981Z,68.95
2023-05-14T00:46:45.406Z,68.45
2023-05-14T00:49:11.984Z,68.55
2023-05-14T00:51:39.382Z,69.71
2023-05-14T00:54:06.297Z,69.32
2023-05-14T00:56:32.805Z,69.42
2023-05-14T00:58:59.653Z,68.94
2023-05-14T01:01:28.481Z,69.12
2023-05-14T01:03:57.990Z,69.07
2023-05-14T01:06:37.506Z,69.28
2023-05-14T01:09:26.439Z,69.24
2023-05-14T01:12:00.882Z,69.24
2023-05-14T01:14:36.778Z,69.44
2023-05-14T01:17:06.303Z,69.05
2023-05-14T01:19:41.336Z,68.60
2023-05-14T01:22:07.816Z,68.53
2023-05-14T01:24:34.321Z,68.62
2023-05-14T01:27:12.538Z,68.71
2023-05-14T01:29:43.178Z,69.14
2023-05-14T01:32:10.764Z,68.85
2023-05-14T01:34:38.647Z,68.65
2023-05-14T01:37:05.689Z,68.61
2023-05-14T01:39:33.405Z,68.84
2023-05-14T01:42:01.217Z,69.05
2023-05-14T01:44:27.804Z,68.84
2023-05-14T01:46:54.171Z,68.43
2023-05-14T01:49:20.692Z,68.16
2023-05-14T01:51:47.031Z,68.24
2023-05-14T01:54:13.361Z,68.31
2023-05-14T01:56:39.768Z,68.28
2023-05-14T01:59:06.109Z,68.57
2023-05-14T02:01:33.732Z,69.14
2023-05-14T02:04:01.034Z,68.46
2023-05-14T02:06:27.780Z,68.80
2023-05-14T02:08:54.117Z,69.31
2023-05-14T02:11:20.438Z,69.52
2023-05-14T02:13:46.822Z,69.58
2023-05-14T02:16:13.278Z,69.76
2023-05-14T02:18:39.742Z,69.89
2023-05-14T02:21:06.285Z,70.03
2023-05-14T02:23:41.092Z,70.56
2023-05-14T02:26:09.536Z,70.83
2023-05-14T02:28:35.881Z,70.62
2023-05-14T02:31:02.315Z,70.34
2023-05-14T02:33:28.822Z,70.51
2023-05-14T02:35:55.305Z,70.38
2023-05-14T02:38:23.321Z,70.15
2023-05-14T02:40:49.738Z,69.46
2023-05-14T02:43:16.098Z,69.81
2023-05-14T02:45:42.830Z,69.75
2023-05-14T02:48:09.194Z,69.89
2023-05-14T02:50:35.609Z,69.64
2023-05-14T02:53:01.956Z,69.73
2023-05-14T02:55:28.319Z,70.02
2023-05-14T02:57:54.745Z,69.64
2023-05-14T03:00:21.706Z,69.58
2023-05-14T03:02:48.726Z,69.48
2023-05-14T03:05:15.459Z,69.38
2023-05-14T03:07:41.841Z,69.50
2023-05-14T03:10:08.827Z,69.88
2023-05-14T03:12:35.346Z,69.85
2023-05-14T03:15:01.756Z,69.66
2023-05-14T03:17:28.158Z,69.09
2023-05-14T03:19:54.531Z,69.12
2023-05-14T03:22:20.920Z,69.06
2023-05-14T03:24:47.237Z,69.16
2023-05-14T03:27:13.585Z,69.04
2023-05-14T03:29:39.927Z,69.15
2023-05-14T03:32:06.656Z,69.15
2023-05-14T03:34:33.054Z,68.89
2023-05-14T03:36:59.407Z,69.14
2023-05-14T03:39:25.734Z,68.88
2023-05-14T03:41:52.241Z,68.43
2023-05-14T03:44:18.626Z,69.02
2023-05-14T03:46:44.961Z,69.25
2023-05-14T03:49:11.443Z,69.16
2023-05-14T03:51:37.863Z,69.51
2023-05-14T03:54:04.494Z,68.90
2023-05-14T03:56:30.857Z,69.70
2023-05-14T03:58:57.187Z,69.71
2023-05-14T04:01:23.658Z,69.42
2023-05-14T04:03:50.148Z,69.47
2023-05-14T04:06:16.638Z,69.53
2023-05-14T04:08:42.961Z,69.87
2023-05-14T04:11:09.290Z,69.53
2023-05-14T04:13:35.665Z,69.28
2023-05-14T04:16:02.033Z,69.64
2023-05-14T04:18:28.457Z,69.54
2023-05-14T04:20:54.879Z,69.19
2023-05-14T04:23:21.524Z,69.49
2023-05-14T04:25:47.850Z,69.40
2023-05-14T04:28:14.860Z,69.48
2023-05-14T04:30:41.194Z,69.28
2023-05-14T04:33:07.629Z,69.31
2023-05-14T04:35:34.080Z,68.99
2023-05-14T04:38:00.657Z,68.76
2023-05-14T04:40:27.446Z,68.58
2023-05-14T04:42:53.912Z,68.46
2023-05-14T04:45:20.427Z,67.68
2023-05-14T04:47:47.169Z,68.15
2023-05-14T04:50:13.631Z,68.38
2023-05-14T04:52:40.047Z,68.43
2023-05-14T04:55:06.981Z,68.65
2023-05-14T04:57:33.488Z,68.46
2023-05-14T04:59:59.915Z,68.62
2023-05-14T05:02:26.322Z,68.42
2023-05-14T05:04:52.780Z,68.45
2023-05-14T05:07:19.134Z,68.53
2023-05-14T05:09:45.517Z,68.75
2023-05-14T05:12:11.931Z,68.81
2023-05-14T05:14:38.276Z,68.77
2023-05-14T05:17:04.882Z,69.15
2023-05-14T05:19:42.389Z,68.72
2023-05-14T05:22:10.276Z,68.64
2023-05-14T05:24:36.660Z,68.92
2023-05-14T05:27:03.424Z,68.65
2023-05-14T05:29:29.922Z,68.93
2023-05-14T05:31:56.421Z,68.63
2023-05-14T05:34:22.821Z,68.82
2023-05-14T05:36:49.155Z,68.87
2023-05-14T05:39:15.537Z,69.09
2023-05-14T05:41:43.478Z,68.63
2023-05-14T05:44:09.860Z,69.57
2023-05-14T05:46:36.257Z,70.34
2023-05-14T05:49:02.641Z,71.38
2023-05-14T05:51:29.014Z,71.31
2023-05-14T05:53:55.364Z,71.15
2023-05-14T05:56:21.975Z,71.72
2023-05-14T05:58:48.522Z,71.60
2023-05-14T06:01:14.958Z,71.34
2023-05-14T06:03:41.509Z,71.72
2023-05-14T06:06:08.000Z,71.39
2023-05-14T06:08:34.322Z,71.21
2023-05-14T06:11:00.642Z,71.19
2023-05-14T06:13:26.990Z,71.66
2023-05-14T06:15:53.306Z,71.88
2023-05-14T06:18:19.641Z,71.78
2023-05-14T06:20:45.974Z,71.55
2023-05-14T06:23:12.467Z,71.67
2023-05-14T06:25:38.899Z,71.94
2023-05-14T06:28:05.226Z,72.77
2023-05-14T06:30:31.611Z,72.20
2023-05-14T06:32:57.983Z,71.93
2023-05-14T06:35:24.477Z,72.22
2023-05-14T06:37:50.818Z,72.40
2023-05-14T06:40:17.502Z,72.31
2023-05-14T06:42:43.822Z,72.31
2023-05-14T06:45:10.564Z,72.80
2023-05-14T06:47:36.985Z,73.15
2023-05-14T06:50:03.617Z,73.28
2023-05-14T06:52:29.964Z,73.30
2023-05-14T06:54:56.316Z,73.33
2023-05-14T06:57:22.654Z,73.33
2023-05-14T06:59:49.042Z,73.43
2023-05-14T07:02:15.385Z,73.28
2023-05-14T07:04:41.797Z,73.54
2023-05-14T07:07:10.405Z,73.71
2023-05-14T07:09:36.740Z,73.99
2023-05-14T07:12:03.268Z,74.29
2023-05-14T07:14:29.634Z,74.22
2023-05-14T07:16:57.217Z,73.93
2023-05-14T07:19:23.616Z,73.81
2023-05-14T07:21:49.957Z,73.73
2023-05-14T07:24:16.288Z,74.21
2023-05-14T07:26:42.641Z,73.98
2023-05-14T07:29:08.983Z,74.04
2023-05-14T07:31:35.394Z,74.33
2023-05-14T07:34:01.817Z,73.76
2023-05-14T07:36:28.174Z,74.21
2023-05-14T07:38:54.598Z,73.74
2023-05-14T07:41:21.445Z,73.44
2023-05-14T07:43:47.773Z,73.99
2023-05-14T07:46:14.558Z,74.45
2023-05-14T07:48:40.918Z,74.01
2023-05-14T07:51:07.255Z,73.36
2023-05-14T07:53:33.657Z,74.06
2023-05-14T07:56:00.082Z,73.90
2023-05-14T07:58:27.925Z,73.82
2023-05-14T08:00:54.560Z,73.37
2023-05-14T08:03:21.030Z,73.28
2023-05-14T08:05:47.648Z,73.13
2023-05-14T08:08:14.056Z,72.71
2023-05-14T08:10:40.452Z,72.76
2023-05-14T08:13:06.806Z,72.60
2023-05-14T08:15:33.153Z,72.11
2023-05-14T08:18:03.360Z,72.49
2023-05-14T08:20:31.092Z,72.29
2023-05-14T08:22:58.190Z,71.83
2023-05-14T08:25:24.901Z,71.29
2023-05-14T08:27:51.222Z,70.92
2023-05-14T08:30:18.041Z,70.23
2023-05-14T08:32:44.419Z,71.35
2023-05-14T08:35:11.071Z,70.90
2023-05-14T08:37:37.440Z,71.37
2023-05-14T08:40:04.017Z,70.73
2023-05-14T08:42:31.229Z,70.23
2023-05-14T08:45:02.368Z,70.67
2023-05-14T08:47:32.867Z,70.02
2023-05-14T08:50:04.621Z,69.44
2023-05-14T08:52:31.700Z,69.67
2023-05-14T08:55:04.076Z,69.25
2023-05-14T08:57:32.541Z,70.18
2023-05-14T08:59:58.946Z,69.75
2023-05-14T09:02:28.790Z,69.41
2023-05-14T09:05:02.398Z,69.54
2023-05-14T09:07:29.016Z,69.69
2023-05-14T09:09:55.707Z,69.77
2023-05-14T09:12:22.600Z,69.51
2023-05-14T09:14:49.949Z,69.96
2023-05-14T09:17:17.344Z,69.29
2023-05-14T09:19:47.175Z,69.71
2023-05-14T09:22:15.245Z,70.05
2023-05-14T09:24:42.064Z,70.40
2023-05-14T09:27:10.044Z,70.58
2023-05-14T09:29:37.070Z,70.52
2023-05-14T09:32:05.368Z,71.02
2023-05-14T09:34:33.779Z,70.99
2023-05-14T09:37:08.301Z,71.16
2023-05-14T09:39:38.575Z,71.28
2023-05-14T09:42:05.362Z,71.13
2023-05-14T09:44:31.967Z,70.91
2023-05-14T09:46:58.336Z,71.23
2023-05-14T09:49:24.705Z,71.35
2023-05-14T09:51:51.221Z,71.12
2023-05-14T09:54:17.809Z,70.45
2023-05-14T09:56:44.747Z,70.68
2023-05-14T09:59:11.244Z,70.71
2023-05-14T10:01:38.056Z,70.86
2023-05-14T10:04:08.090Z,71.14
2023-05-14T10:06:37.826Z,71.07
2023-05-14T10:09:09.438Z,71.46
2023-05-14T10:11:38.236Z,71.44
2023-05-14T10:14:12.516Z,71.02
2023-05-14T10:16:43.450Z,70.79
2023-05-14T10:19:11.560Z,70.23
2023-05-14T10:21:40.880Z,70.60
2023-05-14T10:24:08.227Z,70.17
2023-05-14T10:26:40.698Z,70.37
2023-05-14T10:29:07.492Z,70.60
2023-05-14T10:31:50.435Z,70.35
2023-05-14T10:34:44.116Z,69.92
2023-05-14T10:37:15.488Z,68.99
2023-05-14T10:40:08.179Z,69.36
2023-05-14T10:42:39.629Z,69.00
2023-05-14T10:45:11.533Z,68.44
2023-05-14T10:47:40.415Z,67.60
2023-05-14T10:50:09.128Z,68.46
2023-05-14T10:52:36.117Z,68.70
2023-05-14T10:55:10.101Z,68.16
2023-05-14T10:57:38.552Z,68.05
2023-05-14T11:00:07.717Z,67.65
2023-05-14T11:02:39.429Z,67.31
2023-05-14T11:05:08.706Z,66.95
2023-05-14T11:07:40.038Z,66.18
2023-05-14T11:10:17.327Z,66.55
2023-05-14T11:12:45.823Z,66.22
2023-05-14T11:15:20.517Z,65.56
2023-05-14T11:17:48.359Z,64.67
2023-05-14T11:20:15.136Z,65.24
2023-05-14T11:22:42.982Z,64.48
2023-05-14T11:25:11.006Z,63.31
2023-05-14T11:27:38.757Z,63.92
2023-05-14T11:30:11.817Z,63.74
2023-05-14T11:32:38.214Z,64.38
2023-05-14T11:35:04.960Z,63.48
2023-05-14T11:37:31.351Z,62.95
2023-05-14T11:40:00.542Z,63.46
2023-05-14T11:42:26.900Z,63.90
2023-05-14T11:44:54.089Z,63.73
2023-05-14T11:47:22.321Z,64.45
2023-05-14T11:49:49.139Z,64.91
2023-05-14T11:52:19.037Z,65.81
2023-05-14T11:54:45.497Z,65.86
2023-05-14T11:57:18.130Z,66.35
2023-05-14T11:59:45.336Z,66.33
2023-05-14T12:02:13.873Z,65.87
2023-05-14T12:04:41.967Z,65.33
2023-05-14T12:07:14.495Z,64.85
2023-05-14T12:09:49.491Z,65.05
2023-05-14T12:12:19.083Z,65.74
2023-05-14T12:14:46.637Z,64.78
2023-05-14T12:17:19.043Z,63.61
2023-05-14T12:19:48.104Z,63.39
2023-05-14T12:22:16.414Z,63.32
2023-05-14T12:24:59.385Z,63.73
2023-05-14T12:27:27.929Z,63.33
2023-05-14T12:30:19.206Z,63.37
2023-05-14T12:32:46.912Z,62.76
2023-05-14T12:35:13.283Z,63.23
2023-05-14T12:37:39.866Z,62.57
2023-05-14T12:40:09.370Z,63.00
2023-05-14T12:42:36.658Z,62.38
2023-05-14T12:45:06.834Z,63.06
2023-05-14T12:47:33.244Z,62.61
2023-05-14T12:49:59.643Z,63.56
2023-05-14T12:52:36.660Z,62.70
2023-05-14T12:55:06.688Z,62.00
2023-05-14T12:57:34.992Z,61.87
2023-05-14T13:00:01.632Z,61.24
2023-05-14T13:02:28.074Z,60.83
2023-05-14T13:04:54.434Z,60.11
2023-05-14T13:07:20.993Z,59.03
2023-05-14T13:09:47.329Z,59.46
2023-05-14T13:12:13.654Z,59.03
2023-05-14T13:14:39.984Z,59.12
2023-05-14T13:17:08.039Z,61.83
2023-05-14T13:19:34.663Z,58.70
2023-05-14T13:22:00.982Z,57.91
2023-05-14T13:24:27.312Z,57.42
2023-05-14T13:26:53.622Z,57.43
2023-05-14T13:29:19.944Z,57.70
2023-05-14T13:31:46.265Z,58.26
2023-05-14T13:34:13.031Z,57.63
2023-05-14T13:36:39.709Z,57.42
2023-05-14T13:39:06.979Z,56.40
2023-05-14T13:41:35.523Z,56.90
2023-05-14T13:44:01.868Z,58.44
2023-05-14T13:46:28.271Z,59.66
2023-05-14T13:48:54.797Z,58.90
2023-05-14T13:51:22.839Z,58.94
2023-05-14T13:53:50.112Z,59.86
2023-05-14T13:56:16.424Z,59.93
2023-05-14T13:58:42.767Z,60.25
2023-05-14T14:01:09.177Z,58.80
2023-05-14T14:03:35.614Z,58.42
2023-05-14T14:06:02.148Z,57.46
2023-05-14T14:08:28.474Z,57.51
2023-05-14T14:10:55.322Z,58.55
2023-05-14T14:13:22.671Z,60.03
2023-05-14T14:15:49.155Z,62.23
2023-05-14T14:18:15.585Z,60.83
2023-05-14T14:20:41.941Z,56.79
2023-05-14T14:23:08.341Z,57.36
2023-05-14T14:25:34.692Z,58.95
2023-05-14T14:28:01.102Z,60.93
2023-05-14T14:30:27.431Z,61.48
2023-05-14T14:32:53.960Z,63.37
2023-05-14T14:35:20.699Z,63.95
2023-05-14T14:37:52.371Z,64.57
2023-05-14T14:40:19.297Z,65.53
2023-05-14T14:42:45.689Z,67.10
2023-05-14T14:45:12.427Z,62.86
2023-05-14T14:47:42.863Z,63.37
2023-05-14T14:50:09.457Z,63.03
2023-05-14T14:52:36.514Z,63.61
2023-05-14T14:55:02.960Z,64.85
2023-05-14T14:57:29.315Z,67.87
2023-05-14T14:59:55.673Z,68.59
2023-05-14T15:02:22.379Z,67.73
2023-05-14T15:04:48.832Z,67.83
2023-05-14T15:07:17.205Z,67.30
2023-05-14T15:09:43.522Z,66.49
2023-05-14T15:12:10.761Z,66.03
2023-05-14T15:14:37.168Z,65.33
2023-05-14T15:17:03.720Z,65.69
2023-05-14T15:19:32.164Z,65.14
2023-05-14T15:21:58.571Z,65.35
2023-05-14T15:24:26.044Z,64.77
2023-05-14T15:26:53.559Z,65.13
2023-05-14T15:29:20.391Z,65.06
2023-05-14T15:31:46.966Z,64.47
2023-05-14T15:34:13.385Z,64.31
2023-05-14T15:36:39.777Z,64.56
2023-05-14T15:39:06.215Z,64.95
2023-05-14T15:41:34.289Z,65.99
2023-05-14T15:44:00.661Z,65.69
2023-05-14T15:46:27.409Z,65.26
2023-05-14T15:48:53.838Z,65.73
2023-05-14T15:51:20.198Z,65.81
2023-05-14T15:53:46.553Z,65.92
2023-05-14T15:56:12.994Z,66.12
2023-05-14T15:58:39.330Z,66.53
2023-05-14T16:01:05.790Z,67.80
2023-05-14T16:03:32.543Z,67.20
2023-05-14T16:05:59.450Z,67.20
2023-05-14T16:08:25.788Z,68.05
2023-05-14T16:10:52.135Z,68.27
2023-05-14T16:13:18.504Z,68.57
2023-05-14T16:15:44.878Z,68.79
2023-05-14T16:18:11.338Z,69.13
2023-05-14T16:20:37.888Z,68.64
2023-05-14T16:23:04.221Z,68.71
2023-05-14T16:25:31.297Z,69.03
2023-05-14T16:27:57.695Z,68.63
2023-05-14T16:30:24.411Z,68.45
2023-05-14T16:32:51.069Z,68.71
2023-05-14T16:35:17.421Z,68.74
2023-05-14T16:37:43.741Z,69.14
2023-05-14T16:40:11.577Z,69.34
2023-05-14T16:42:38.465Z,68.91
2023-05-14T16:45:05.374Z,69.24
2023-05-14T16:47:31.769Z,69.25
2023-05-14T16:49:58.394Z,69.19
2023-05-14T16:52:24.809Z,69.08
2023-05-14T16:54:51.146Z,68.76
2023-05-14T16:57:17.481Z,68.97
2023-05-14T16:59:43.898Z,69.49
2023-05-14T17:02:10.366Z,69.85
2023-05-14T17:04:41.962Z,69.66
2023-05-14T17:07:08.591Z,69.43
2023-05-14T17:09:34.935Z,70.10
2023-05-14T17:12:01.346Z,71.03
2023-05-14T17:14:27.696Z,70.42
2023-05-14T17:16:54.365Z,70.22
2023-05-14T17:19:21.032Z,72.32
2023-05-14T17:21:47.553Z,73.77
2023-05-14T17:24:13.902Z,73.51
2023-05-14T17:26:40.260Z,72.59
2023-05-14T17:29:06.588Z,71.96
2023-05-14T17:31:33.009Z,71.58
2023-05-14T17:33:59.420Z,71.78
2023-05-14T17:36:25.805Z,71.53
2023-05-14T17:38:52.438Z,72.14
2023-05-14T17:41:18.783Z,71.72
2023-05-14T17:43:45.198Z,71.31
2023-05-14T17:46:11.575Z,70.73
2023-05-14T17:48:38.025Z,70.95
2023-05-14T17:51:04.423Z,71.27
2023-05-14T17:53:31.106Z,71.52
2023-05-14T17:55:57.507Z,71.17
2023-05-14T17:58:24.188Z,70.54
2023-05-14T18:00:50.557Z,70.77
2023-05-14T18:03:17.432Z,71.06
2023-05-14T18:05:43.871Z,69.95
2023-05-14T18:08:10.245Z,69.82
2023-05-14T18:10:36.756Z,70.36
2023-05-14T18:13:03.311Z,69.77
2023-05-14T18:15:31.352Z,69.48
2023-05-14T18:17:57.678Z,69.48
2023-05-14T18:20:24.022Z,69.53
2023-05-14T18:22:51.532Z,69.47
2023-05-14T18:25:18.061Z,69.62
2023-05-14T18:27:45.250Z,69.83
2023-05-14T18:30:14.047Z,69.61
2023-05-14T18:32:41.703Z,70.42
2023-05-14T18:35:08.633Z,70.65
2023-05-14T18:37:35.477Z,71.15
2023-05-14T18:40:06.873Z,71.67
2023-05-14T18:42:33.910Z,72.45
2023-05-14T18:45:00.404Z,73.60
2023-05-14T18:47:27.000Z,75.15
2023-05-14T18:49:55.616Z,76.84
2023-05-14T18:52:22.762Z,77.36
2023-05-14T18:54:50.269Z,77.32
2023-05-14T18:57:16.613Z,77.16
2023-05-14T18:59:42.943Z,76.45
2023-05-14T19:02:09.400Z,75.90
2023-05-14T19:04:47.863Z,75.45
2023-05-14T19:07:17.977Z,75.02
2023-05-14T19:09:44.313Z,74.67
2023-05-14T19:12:10.723Z,73.48
2023-05-14T19:14:37.381Z,72.31
2023-05-14T19:17:03.888Z,72.42
2023-05-14T19:19:30.626Z,72.31
2023-05-14T19:21:57.149Z,72.68
2023-05-14T19:24:23.523Z,72.55
2023-05-14T19:26:50.027Z,73.19
2023-05-14T19:29:16.380Z,73.04
2023-05-14T19:31:42.738Z,73.04
2023-05-14T19:34:09.108Z,73.20
2023-05-14T19:36:35.545Z,73.32
2023-05-14T19:39:01.965Z,73.39
2023-05-14T19:41:28.461Z,73.34
2023-05-14T19:43:54.802Z,72.77
2023-05-14T19:46:21.255Z,73.22
2023-05-14T19:48:48.395Z,72.75
2023-05-14T19:51:14.803Z,73.09
2023-05-14T19:53:41.151Z,72.74
2023-05-14T19:56:07.618Z,72.20
2023-05-14T19:58:34.001Z,72.47
2023-05-14T20:01:00.673Z,72.66
2023-05-14T20:03:27.206Z,72.90
2023-05-14T20:05:54.723Z,73.30
2023-05-14T20:08:21.371Z,72.79
2023-05-14T20:10:48.391Z,73.18
2023-05-14T20:13:14.956Z,73.83
2023-05-14T20:15:41.670Z,73.66
2023-05-14T20:18:08.226Z,73.34
2023-05-14T20:20:34.656Z,73.70
2023-05-14T20:23:01.113Z,73.63
2023-05-14T20:25:28.760Z,73.77
2023-05-14T20:27:55.574Z,73.57
2023-05-14T20:30:21.932Z,73.55
2023-05-14T20:32:48.381Z,73.31
2023-05-14T20:35:14.857Z,73.49
2023-05-14T20:37:41.247Z,73.71
2023-05-14T20:40:10.439Z,73.34
2023-05-14T20:42:36.933Z,73.11
2023-05-14T20:45:03.950Z,73.35
2023-05-14T20:47:33.030Z,73.59
2023-05-14T20:49:59.945Z,73.47
2023-05-14T20:52:26.579Z,73.43
2023-05-14T20:54:53.094Z,75.73
2023-05-14T20:57:20.089Z,76.00
2023-05-14T20:59:46.533Z,75.66
2023-05-14T21:02:12.954Z,75.59
2023-05-14T21:04:39.537Z,75.28
2023-05-14T21:07:06.684Z,76.09
2023-05-14T21:09:33.071Z,77.50
2023-05-14T21:11:59.440Z,77.00
2023-05-14T21:14:25.911Z,76.70
2023-05-14T21:16:52.293Z,76.67
2023-05-14T21:19:18.991Z,76.02
2023-05-14T21:21:45.593Z,76.24
2023-05-14T21:24:11.950Z,77.73
2023-05-14T21:26:40.238Z,77.46
2023-05-14T21:29:06.829Z,78.88
2023-05-14T21:31:33.266Z,79.48
2023-05-14T21:33:59.644Z,79.30
2023-05-14T21:36:26.150Z,79.09
2023-05-14T21:38:53.110Z,78.99
2023-05-14T21:41:19.530Z,79.89
2023-05-14T21:43:45.931Z,80.20
2023-05-14T21:46:12.290Z,79.83
2023-05-14T21:48:38.818Z,78.59
2023-05-14T21:51:06.527Z,77.61
2023-05-14T21:53:33.102Z,77.46
2023-05-14T21:55:59.423Z,77.01
2023-05-14T21:58:27.190Z,77.07
2023-05-14T22:00:53.568Z,77.28
2023-05-14T22:03:19.976Z,78.03
2023-05-14T22:05:46.427Z,78.95
2023-05-14T22:08:12.759Z,79.66
2023-05-14T22:10:39.090Z,79.92
2023-05-14T22:13:05.471Z,79.65
2023-05-14T22:15:31.802Z,79.18
2023-05-14T22:17:58.240Z,78.94
2023-05-14T22:20:24.677Z,79.83
2023-05-14T22:22:51.695Z,79.48
2023-05-14T22:25:18.056Z,79.88
2023-05-14T22:27:44.399Z,79.39
2023-05-14T22:30:11.106Z,78.66
2023-05-14T22:32:37.759Z,78.53
2023-05-14T22:35:04.394Z,79.02
2023-05-14T22:37:30.783Z,78.83
2023-05-14T22:39:57.415Z,79.42
2023-05-14T22:42:23.828Z,79.55
2023-05-14T22:44:50.393Z,78.94
2023-05-14T22:47:16.911Z,77.88
2023-05-14T22:49:43.572Z,77.78
2023-05-14T22:52:10.127Z,78.95
2023-05-14T22:54:36.495Z,78.61
2023-05-14T22:57:03.723Z,78.62
2023-05-14T22:59:30.086Z,79.39
2023-05-14T23:01:56.552Z,79.39
2023-05-14T23:04:23.000Z,78.67
2023-05-14T23:06:49.392Z,78.16
2023-05-14T23:09:15.855Z,78.02
2023-05-14T23:11:42.190Z,77.87
2023-05-14T23:14:08.904Z,78.62
2023-05-14T23:16:35.522Z,77.91
2023-05-14T23:19:01.925Z,78.03
2023-05-14T23:21:28.437Z,76.85
2023-05-14T23:23:54.781Z,76.33
2023-05-14T23:26:21.680Z,77.00
2023-05-14T23:28:48.044Z,76.19
2023-05-14T23:31:14.408Z,76.24
2023-05-14T23:33:40.970Z,76.00
2023-05-14T23:36:07.956Z,76.06
2023-05-14T23:38:34.712Z,76.11
2023-05-14T23:41:01.101Z,76.42
2023-05-14T23:43:27.451Z,75.83
2023-05-14T23:45:53.996Z,76.23
2023-05-14T23:48:20.512Z,76.44
2023-05-14T23:50:46.886Z,76.44
2023-05-14T23:53:13.237Z,76.60
2023-05-14T23:55:39.677Z,76.05
2023-05-14T23:58:06.199Z,76.07
